Time;durP1;ratioP1;P1;durP2;ratioP2;P2;SDS_P1;SDS_P2;PMS_P1;PMS_P2;Temp;Humidity;BMP_temperature;BMP_pressure;BME280_temperature;BME280_humidity;BME280_pressure;Samples;Min_cycle;Max_cycle;Signal;HPM_P1;HPM_P2
2022/03/21 00:01:16;;;;;;;55.00;36.67;;;;;;;-2.38;61.56;102270.42;1830188;77;21441;-58
2022/03/21 00:03:43;;;;;;;62.55;38.90;;;;;;;-2.22;61.38;102264.33;1828731;77;20898;-58
2022/03/21 00:06:10;;;;;;;55.73;37.98;;;;;;;-2.14;61.28;102262.59;1808129;78;21014;-58
2022/03/21 00:08:37;;;;;;;56.63;37.73;;;;;;;-2.18;61.08;102259.44;1815494;78;21038;-58
2022/03/21 00:11:04;;;;;;;58.05;40.45;;;;;;;-2.27;61.07;102267.95;1829171;78;21009;-58
2022/03/21 00:13:30;;;;;;;61.88;41.70;;;;;;;-2.34;61.18;102267.22;1841092;77;22301;-59
2022/03/21 00:16:01;;;;;;;61.45;40.98;;;;;;;-2.39;61.23;102264.84;1829578;77;21574;-59
2022/03/21 00:18:29;;;;;;;63.85;39.53;;;;;;;-2.40;61.28;102265.66;1842237;77;21564;-59
2022/03/21 00:20:56;;;;;;;63.93;41.33;;;;;;;-2.42;61.39;102272.38;1848546;77;20931;-59
2022/03/21 00:23:24;;;;;;;64.70;40.97;;;;;;;-2.48;61.42;102268.72;1829258;77;20895;-59
2022/03/21 00:25:51;;;;;;;65.50;41.23;;;;;;;-2.56;61.36;102267.48;1826038;78;21234;-58
2022/03/21 00:28:24;;;;;;;71.65;42.40;;;;;;;-2.64;61.43;102271.36;1809821;78;21550;-59
2022/03/21 00:30:51;;;;;;;68.80;41.28;;;;;;;-2.71;61.52;102265.09;1829086;78;20989;-59
2022/03/21 00:33:18;;;;;;;58.65;37.42;;;;;;;-2.74;61.73;102274.31;1829219;78;26883;-59
2022/03/21 00:35:50;;;;;;;64.87;39.50;;;;;;;-2.75;61.80;102261.02;1849548;77;21007;-58
2022/03/21 00:38:19;;;;;;;59.58;37.67;;;;;;;-2.74;61.96;102260.24;1827568;77;21126;-59
2022/03/21 00:40:47;;;;;;;61.83;39.50;;;;;;;-2.76;62.03;102258.00;1814562;78;21802;-59
2022/03/21 00:43:22;;;;;;;72.60;43.33;;;;;;;-2.77;62.00;102257.55;1826451;78;20972;-59
2022/03/21 00:45:54;;;;;;;71.75;41.83;;;;;;;-2.83;62.01;102253.39;1828852;78;20969;-58
2022/03/21 00:48:22;;;;;;;67.27;41.23;;;;;;;-2.89;62.14;102255.66;1829097;78;21027;-59
2022/03/21 00:50:49;;;;;;;61.23;38.53;;;;;;;-2.94;62.10;102248.66;1828239;78;21888;-59
2022/03/21 00:53:16;;;;;;;56.10;36.48;;;;;;;-2.97;62.24;102250.17;1829294;77;21487;-59
2022/03/21 00:55:43;;;;;;;60.28;35.90;;;;;;;-3.00;62.32;102253.45;1828324;78;28166;-59
2022/03/21 00:58:10;;;;;;;53.90;34.73;;;;;;;-3.00;62.82;102245.78;1829571;77;20977;-58
2022/03/21 01:00:37;;;;;;;54.75;34.63;;;;;;;-2.95;62.77;102245.61;1829726;78;21045;-59
2022/03/21 01:03:04;;;;;;;52.20;34.60;;;;;;;-2.92;62.71;102248.72;1831519;78;21486;-59
2022/03/21 01:05:31;;;;;;;47.73;35.00;;;;;;;-2.87;62.94;102244.70;1829826;77;29054;-59
2022/03/21 01:07:59;;;;;;;47.60;31.93;;;;;;;-2.84;62.89;102250.37;1830887;78;27048;-59
2022/03/21 01:10:27;;;;;;;52.13;32.08;;;;;;;-2.89;62.92;102239.04;1826678;78;20963;-58
2022/03/21 01:12:55;;;;;;;49.08;33.15;;;;;;;-2.78;63.13;102257.05;1834016;77;20862;-59
2022/03/21 01:15:26;;;;;;;47.27;31.77;;;;;;;-2.79;63.04;102256.17;1815915;77;21572;-59
2022/03/21 01:17:55;;;;;;;53.02;34.13;;;;;;;-2.79;63.08;102257.86;1816413;78;20977;-59
2022/03/21 01:20:23;;;;;;;52.33;34.67;;;;;;;-2.80;63.16;102253.53;1815392;77;20942;-59
2022/03/21 01:22:50;;;;;;;47.85;33.67;;;;;;;-2.81;63.16;102254.34;1818392;78;21045;-59
2022/03/21 01:25:17;;;;;;;;;;;;;;;-2.83;63.24;102248.27;1824156;78;21092;-59
2022/03/21 01:27:44;;;;;;;58.57;36.37;;;;;;;-2.84;63.43;102251.64;1832099;78;21125;-58
2022/03/21 01:30:14;;;;;;;49.13;33.10;;;;;;;-2.86;63.39;102255.80;1820854;78;20957;-59
2022/03/21 01:32:43;;;;;;;48.48;33.28;;;;;;;-2.86;63.42;102248.13;1827724;78;21487;-59
2022/03/21 01:35:13;;;;;;;48.98;33.05;;;;;;;-2.90;63.42;102253.91;1828427;78;21028;-59
2022/03/21 01:37:40;;;;;;;56.02;34.65;;;;;;;-2.95;63.42;102248.16;1829334;77;21135;-59
2022/03/21 01:40:09;;;;;;;59.40;35.30;;;;;;;-2.99;63.48;102246.69;1826779;77;21418;-58
2022/03/21 01:42:43;;;;;;;60.65;36.15;;;;;;;-3.04;63.45;102249.41;1827435;78;20903;-58
2022/03/21 01:45:07;;;;;;;59.42;36.70;;;;;;;-3.10;63.52;102248.72;1817109;78;21012;-58
2022/03/21 01:47:34;;;;;;;61.53;38.50;;;;;;;-3.18;63.54;102247.45;1826450;78;21601;-59
2022/03/21 01:50:03;;;;;;;;;;;;;;;-3.20;63.63;102246.50;1815131;77;21538;-59
2022/03/21 01:52:30;;;;;;;47.05;30.40;;;;;;;-3.20;63.97;102249.05;1826682;78;21557;-59
2022/03/21 01:57:45;;;;;;;51.68;30.85;;;;;;;-3.03;64.35;102242.20;1830748;77;20957;-59
2022/03/21 02:00:13;;;;;;;49.65;32.17;;;;;;;-3.01;64.18;102240.61;1830703;77;20942;-59
2022/03/21 02:02:40;;;;;;;46.77;31.77;;;;;;;-2.99;64.19;102239.89;1824472;77;21056;-59
2022/03/21 02:05:08;;;;;;;48.38;32.70;;;;;;;-2.98;64.33;102241.62;1821172;77;21627;-59
2022/03/21 02:07:36;;;;;;;48.60;31.65;;;;;;;-3.00;64.29;102233.00;1813925;78;21554;-59
2022/03/21 02:10:05;;;;;;;47.78;31.15;;;;;;;-2.99;64.42;102237.33;1808767;78;22050;-59
2022/03/21 02:12:33;;;;;;;50.33;32.90;;;;;;;-2.93;64.46;102242.73;1816929;77;20970;-59
2022/03/21 02:15:00;;;;;;;48.33;33.00;;;;;;;-2.93;64.32;102242.73;1821264;78;21016;-58
2022/03/21 02:17:30;;;;;;;53.73;33.95;;;;;;;-2.95;64.29;102241.77;1821216;78;21089;-59
2022/03/21 02:20:01;;;;;;;51.80;33.10;;;;;;;-2.97;64.35;102243.41;1799893;78;21634;-59
2022/03/21 02:23:09;;;;;;;43.80;31.17;;;;;;;-2.99;64.35;102239.89;1783066;78;20970;-59
2022/03/21 02:25:44;;;;;;;47.98;31.68;;;;;;;-2.99;64.55;102239.89;1754609;81;21071;-58
2022/03/21 02:28:13;;;;;;;48.95;33.02;;;;;;;-2.99;64.59;102241.16;1770338;80;21610;-58
2022/03/21 02:30:49;;;;;;;55.40;33.88;;;;;;;-3.00;64.51;102235.55;1746797;80;21140;-59
2022/03/21 02:33:17;;;;;;;55.00;33.30;;;;;;;-3.08;64.46;102234.34;1769860;80;21076;-58
2022/03/21 02:35:47;;;;;;;48.78;31.87;;;;;;;-3.13;64.55;102235.79;1775628;80;21012;-59
2022/03/21 02:38:16;;;;;;;58.45;34.65;;;;;;;-3.19;64.65;102238.05;1775992;79;20904;-59
2022/03/21 02:40:43;;;;;;;54.83;34.80;;;;;;;-3.25;64.70;102233.89;1777396;80;21065;-59
2022/03/21 02:43:10;;;;;;;52.73;34.70;;;;;;;-3.29;64.74;102240.94;1756695;80;21422;-59
2022/03/21 02:45:37;;;;;;;57.05;35.52;;;;;;;-3.32;64.82;102229.30;1770348;80;20955;-59
2022/03/21 02:48:04;;;;;;;54.50;33.65;;;;;;;-3.35;64.90;102232.58;1774624;80;20990;-58
2022/03/21 02:50:58;;;;;;;56.33;34.35;;;;;;;-3.38;64.94;102232.02;1771388;79;21002;-58
2022/03/21 02:53:30;;;;;;;47.90;29.52;;;;;;;-3.39;65.03;102228.09;1757326;80;21066;-58
2022/03/21 02:55:57;;;;;;;46.02;29.65;;;;;;;-3.40;65.10;102228.50;1752052;80;21086;-58
2022/03/21 02:58:24;;;;;;;43.23;29.50;;;;;;;-3.40;65.22;102228.50;1770840;80;20970;-58
2022/03/21 03:00:51;;;;;;;41.35;27.48;;;;;;;-3.37;65.23;102226.09;1764315;80;20982;-58
2022/03/21 03:05:40;;;;;;;48.98;31.20;;;;;;;-3.15;65.51;102222.05;1866688;75;22612;-57
2022/03/21 03:08:07;;;;;;;49.42;31.37;;;;;;;-3.16;65.36;102217.75;1841813;77;20910;-57
2022/03/21 03:10:34;;;;;;;48.53;32.00;;;;;;;-3.19;65.18;102218.89;1832803;77;21302;-57
2022/03/21 03:13:00;;;;;;;41.95;26.75;;;;;;;-3.23;65.23;102223.35;1850421;76;20938;-57
2022/03/21 03:15:27;;;;;;;40.75;27.77;;;;;;;-3.24;65.39;102216.50;1838031;77;21534;-57
2022/03/21 03:17:54;;;;;;;41.83;28.03;;;;;;;-3.24;65.50;102219.05;1846288;77;20953;-57
2022/03/21 03:20:21;;;;;;;42.77;26.77;;;;;;;-3.23;65.54;102223.35;1830839;77;21198;-57
2022/03/21 03:22:48;;;;;;;41.65;27.15;;;;;;;-3.22;65.64;102221.27;1849482;77;21259;-57
2022/03/21 03:25:15;;;;;;;40.78;26.20;;;;;;;-3.24;65.60;102224.17;1842778;77;21008;-57
2022/03/21 03:27:41;;;;;;;46.20;29.17;;;;;;;-3.24;65.68;102222.89;1850243;77;20936;-57
2022/03/21 03:32:57;;;;;;;49.48;29.10;;;;;;;-3.27;65.67;102223.61;1673156;84;21092;-57
2022/03/21 03:35:23;;;;;;;43.60;28.97;;;;;;;-3.28;65.77;102226.08;1692479;84;21862;-57
2022/03/21 03:37:50;;;;;;;40.70;28.25;;;;;;;-3.30;65.84;102229.85;1675187;84;21675;-57
2022/03/21 03:40:17;;;;;;;46.02;32.28;;;;;;;-3.28;65.89;102227.36;1720254;82;20950;-57
2022/03/21 03:42:44;;;;;;;55.48;35.98;;;;;;;-3.29;65.87;102223.93;1727632;82;21037;-57
2022/03/21 03:45:11;;;;;;;50.17;32.95;;;;;;;-3.32;65.79;102225.47;1695671;83;20964;-57
2022/03/21 03:47:38;;;;;;;58.87;32.10;;;;;;;-3.37;65.83;102223.55;1713475;82;22301;-57
2022/03/21 03:50:06;;;;;;;47.08;30.88;;;;;;;-3.42;65.86;102219.91;1717640;82;21120;-58
2022/03/21 03:52:32;;;;;;;43.65;29.27;;;;;;;-3.48;65.87;102224.69;1700730;84;22397;-57
2022/03/21 03:54:59;;;;;;;49.55;29.60;;;;;;;-3.52;65.95;102225.35;1704178;84;20992;-58
2022/03/21 03:57:26;;;;;;;48.37;31.30;;;;;;;-3.54;65.96;102226.95;1706546;82;21012;-57
2022/03/21 03:59:52;;;;;;;51.50;27.93;;;;;;;-3.58;65.98;102219.94;1709428;82;22283;-57
2022/03/21 04:02:19;;;;;;;37.28;24.63;;;;;;;-3.62;66.00;102220.57;1690347;84;21096;-57
2022/03/21 04:04:46;;;;;;;41.55;26.97;;;;;;;-3.63;66.14;102223.94;1716128;82;21006;-57
2022/03/21 04:07:12;;;;;;;44.35;27.98;;;;;;;-3.64;66.23;102222.16;1714014;82;20958;-57
2022/03/21 04:09:39;;;;;;;45.75;28.80;;;;;;;-3.64;66.21;102222.16;1714419;82;21023;-57
2022/03/21 04:12:07;;;;;;;49.05;28.55;;;;;;;-3.64;66.21;102227.27;1727621;82;21448;-57
2022/03/21 04:14:33;;;;;;;45.43;27.55;;;;;;;-3.64;66.28;102227.27;1708161;82;20982;-57
2022/03/21 04:17:00;;;;;;;40.78;26.97;;;;;;;-3.62;66.36;102225.68;1709004;82;20963;-57
2022/03/21 04:19:27;;;;;;;48.58;29.32;;;;;;;-3.57;66.43;102228.07;1706103;84;21512;-57
2022/03/21 04:21:53;;;;;;;38.67;26.45;;;;;;;-3.50;66.50;102227.97;1705511;84;21148;-57
2022/03/21 04:24:20;;;;;;;56.88;29.35;;;;;;;-3.49;66.38;102230.61;1714773;82;21435;-57
2022/03/21 04:26:47;;;;;;;58.75;32.33;;;;;;;-3.53;66.41;102221.02;1707301;82;21006;-57
2022/03/21 04:29:13;;;;;;;88.25;42.23;;;;;;;-3.57;66.34;102229.34;1705406;84;21523;-58
2022/03/21 04:31:40;;;;;;;95.65;43.35;;;;;;;-3.60;66.41;102226.64;1707900;82;20969;-57
2022/03/21 04:34:07;;;;;;;67.63;33.33;;;;;;;-3.62;66.46;102226.55;1712836;83;20954;-57
2022/03/21 04:36:33;;;;;;;74.43;36.33;;;;;;;-3.62;66.52;102229.51;1703402;82;21570;-57
2022/03/21 04:39:00;;;;;;;69.15;37.78;;;;;;;-3.60;66.60;102231.75;1706317;83;20985;-57
2022/03/21 04:41:26;;;;;;;62.73;33.83;;;;;;;-3.60;66.53;102225.36;1701080;83;21009;-57
2022/03/21 04:43:53;;;;;;;51.05;28.47;;;;;;;-3.61;66.51;102232.56;1710179;82;21084;-57
2022/03/21 04:46:19;;;;;;;48.60;25.07;;;;;;;-3.60;66.60;102234.30;1701137;83;21046;-57
2022/03/21 04:48:46;;;;;;;46.30;26.05;;;;;;;-3.57;66.66;102226.80;1701277;82;22272;-57
2022/03/21 04:51:16;;;;;;;50.30;25.92;;;;;;;-3.52;66.69;102233.02;1700811;82;21049;-57
2022/03/21 04:53:43;;;;;;;44.67;25.97;;;;;;;-3.48;66.70;102232.35;1701944;83;20978;-59
2022/03/21 04:56:10;;;;;;;45.95;27.15;;;;;;;-3.43;66.69;102221.97;1707847;83;21074;-59
2022/03/21 04:58:37;;;;;;;49.53;26.80;;;;;;;-3.37;66.69;102229.06;1714114;83;21053;-59
2022/03/21 05:01:04;;;;;;;52.60;27.70;;;;;;;-3.27;66.81;102229.13;1700814;82;21614;-59
2022/03/21 05:03:32;;;;;;;47.75;27.22;;;;;;;-2.92;67.11;102229.13;1702916;82;21013;-59
2022/03/21 05:05:58;;;;;;;54.75;29.70;;;;;;;-2.37;67.18;102232.53;1700821;82;21034;-59
2022/03/21 05:08:25;;;;;;;66.00;35.43;;;;;;;-1.76;67.18;102236.91;1700193;82;20987;-59
2022/03/21 05:10:52;;;;;;;61.68;33.63;;;;;;;-1.11;67.07;102230.27;1722744;83;21034;-60
2022/03/21 05:13:19;;;;;;;57.90;32.58;;;;;;;-0.55;66.56;102223.92;1711387;82;21462;-59
2022/03/21 05:15:49;;;;;;;56.02;31.23;;;;;;;0.00;66.42;102216.98;1700795;83;21609;-60
2022/03/21 05:18:16;;;;;;;59.93;35.15;;;;;;;0.50;66.02;102229.41;1700632;84;20983;-60
2022/03/21 05:20:44;;;;;;;67.35;37.90;;;;;;;0.89;65.75;102222.56;1700642;83;21637;-60
2022/03/21 05:31:27;;;;;;;55.75;34.85;;;;;;;2.71;65.03;102215.31;1706852;82;21066;-60
2022/03/21 05:36:40;;;;;;;48.63;29.72;;;;;;;3.38;64.52;102217.75;1696583;82;20987;-58
2022/03/21 05:39:07;;;;;;;39.38;26.05;;;;;;;3.67;64.26;102224.42;1699696;82;22302;-59
2022/03/21 05:41:34;;;;;;;49.45;24.15;;;;;;;3.90;64.22;102216.27;1701687;82;21650;-59
2022/03/21 05:44:01;;;;;;;46.37;27.62;;;;;;;4.18;64.25;102223.72;1700373;82;21617;-59
2022/03/21 05:46:28;;;;;;;34.43;22.17;;;;;;;4.47;64.17;102221.66;1696118;82;21664;-59
2022/03/21 05:48:58;;;;;;;34.93;22.70;;;;;;;4.71;64.05;102221.22;1701413;82;20944;-59
2022/03/21 05:51:30;;;;;;;33.83;22.65;;;;;;;4.93;63.73;102225.03;1699646;82;21279;-59
2022/03/21 05:54:08;;;;;;;38.85;24.12;;;;;;;5.08;63.60;102219.22;1701877;83;20983;-59
2022/03/21 05:56:35;;;;;;;41.55;26.35;;;;;;;5.63;63.74;102216.95;1709049;82;21078;-59
2022/03/21 06:01:49;;;;;;;49.30;27.20;;;;;;;6.00;63.95;102224.38;1702751;82;21050;-60
2022/03/21 06:04:18;;;;;;;62.45;27.80;;;;;;;6.20;63.14;102222.43;1699496;83;21911;-60
2022/03/21 06:06:46;;;;;;;42.65;24.70;;;;;;;6.25;63.12;102218.16;1702895;82;21078;-60
2022/03/21 06:09:15;;;;;;;;;;;;;;;6.42;63.27;102223.53;1706481;82;21019;-60
2022/03/21 06:11:48;;;;;;;38.83;22.40;;;;;;;6.68;63.07;102221.16;1697156;82;20253;-61
2022/03/21 06:14:13;;;;;;;50.50;24.65;;;;;;;6.87;63.03;102223.05;1699598;82;21024;-60
2022/03/21 06:16:39;;;;;;;32.65;24.05;;;;;;;7.04;63.02;102222.32;1700297;82;21918;-60
2022/03/21 06:19:08;;;;;;;54.98;28.52;;;;;;;7.22;63.02;102219.83;1706851;82;21118;-61
2022/03/21 06:21:35;;;;;;;41.02;25.10;;;;;;;7.50;63.31;102221.30;1700967;82;21039;-62
2022/03/21 06:24:02;;;;;;;43.98;26.77;;;;;;;7.93;63.21;102217.61;1694286;83;21090;-61
2022/03/21 06:26:30;;;;;;;73.80;53.33;;;;;;;8.15;62.71;102213.31;1687954;83;21002;-60
2022/03/21 06:28:57;;;;;;;193.37;119.65;;;;;;;8.36;62.82;102217.71;1670692;82;21138;-61
2022/03/21 06:31:25;;;;;;;105.60;60.60;;;;;;;8.63;63.13;102221.69;1695297;82;20995;-60
2022/03/21 06:33:52;;;;;;;79.37;39.45;;;;;;;8.99;62.92;102214.75;1691847;82;21027;-61
2022/03/21 06:36:19;;;;;;;67.20;31.80;;;;;;;9.16;62.56;102212.98;1700217;83;21027;-60
2022/03/21 06:38:46;;;;;;;52.53;26.65;;;;;;;9.29;62.39;102215.11;1686152;82;21030;-60
2022/03/21 06:41:14;;;;;;;;;;;;;;;9.43;62.35;102214.22;1691629;82;21299;-60
2022/03/21 06:43:41;;;;;;;34.50;23.12;;;;;;;9.61;62.08;102211.12;1693269;83;20201;-61
2022/03/21 06:46:08;;;;;;;37.58;23.87;;;;;;;9.87;62.49;102211.45;1693558;83;20967;-61
2022/03/21 06:48:36;;;;;;;60.55;24.07;;;;;;;10.00;61.86;102214.88;1689303;82;22437;-61
2022/03/21 06:51:03;;;;;;;66.77;23.57;;;;;;;10.09;61.78;102214.82;1699208;83;21054;-61
2022/03/21 06:53:29;;;;;;;47.80;22.20;;;;;;;10.21;61.50;102212.58;1701882;82;21524;-62
2022/03/21 06:55:57;;;;;;;46.00;22.65;;;;;;;10.41;61.41;102219.00;1701265;82;22194;-62
2022/03/21 06:58:24;;;;;;;33.58;21.40;;;;;;;10.50;61.04;102217.21;1704262;82;21078;-61
2022/03/21 07:00:53;;;;;;;25.75;17.77;;;;;;;10.69;60.96;102219.67;1687430;82;21624;-59
2022/03/21 07:03:20;;;;;;;33.85;18.23;;;;;;;10.85;60.76;102218.67;1690772;83;21132;-61
2022/03/21 07:05:48;;;;;;;28.87;17.12;;;;;;;10.92;60.46;102222.08;1687446;83;21116;-60
2022/03/21 07:08:15;;;;;;;28.17;17.62;;;;;;;10.90;59.80;102222.11;1694113;82;21031;-60
2022/03/21 07:10:44;;;;;;;36.38;21.57;;;;;;;10.91;60.06;102231.68;1694665;83;21744;-60
2022/03/21 07:13:12;;;;;;;34.30;20.90;;;;;;;10.88;59.67;102231.70;1706909;82;21114;-59
2022/03/21 07:15:39;;;;;;;47.10;23.05;;;;;;;10.70;59.48;102233.18;1683517;82;21058;-60
2022/03/21 07:18:07;;;;;;;34.35;17.57;;;;;;;10.44;59.47;102230.28;1707559;82;21519;-60
2022/03/21 07:20:37;;;;;;;35.52;18.25;;;;;;;10.32;59.55;102234.30;1677994;82;21038;-60
2022/03/21 07:23:04;;;;;;;40.67;22.17;;;;;;;10.18;59.19;102233.48;1704549;82;20955;-59
2022/03/21 07:25:32;;;;;;;34.30;17.12;;;;;;;9.96;59.11;102237.50;1701948;83;21501;-60
2022/03/21 07:27:59;;;;;;;24.02;14.68;;;;;;;9.76;58.75;102236.72;1706171;83;21086;-60
2022/03/21 07:30:26;;;;;;;16.73;13.60;;;;;;;9.58;58.56;102242.44;1706036;82;21692;-60
2022/03/21 07:32:53;;;;;;;27.17;12.10;;;;;;;9.47;58.36;102243.34;1704334;82;22218;-59
2022/03/21 07:35:20;;;;;;;40.67;15.78;;;;;;;9.32;58.07;102240.31;1703773;83;22314;-59
2022/03/21 07:37:50;;;;;;;22.90;15.48;;;;;;;9.22;57.78;102238.61;1710261;83;28211;-62
2022/03/21 07:40:18;;;;;;;20.35;17.07;;;;;;;9.10;57.46;102246.87;1697997;83;21101;-59
2022/03/21 07:42:47;;;;;;;18.25;13.25;;;;;;;8.95;57.33;102248.17;1699369;82;21426;-59
2022/03/21 07:48:12;;;;;;;15.95;11.15;;;;;;;8.76;56.36;102241.22;1813808;77;22916;-60
2022/03/21 07:50:41;;;;;;;15.85;9.80;;;;;;;8.67;56.76;102244.25;1785173;78;21045;-60
2022/03/21 07:53:09;;;;;;;17.10;9.50;;;;;;;8.65;56.32;102241.20;1783304;78;21504;-59
2022/03/21 07:55:37;;;;;;;13.38;9.60;;;;;;;8.62;56.03;102240.77;1783366;79;20923;-59
2022/03/21 07:58:04;;;;;;;18.98;9.65;;;;;;;8.63;56.03;102243.83;1794015;78;21604;-59
2022/03/21 08:00:31;;;;;;;15.43;10.15;;;;;;;8.69;55.91;102242.52;1788299;78;21057;-60
2022/03/21 08:02:59;;;;;;;13.65;10.15;;;;;;;8.73;55.86;102240.34;1779186;79;21062;-59
2022/03/21 08:05:28;;;;;;;14.05;9.75;;;;;;;8.84;55.74;102244.70;1778292;78;21709;-60
2022/03/21 08:07:55;;;;;;;20.25;10.38;;;;;;;8.91;55.31;102243.84;1775643;80;21875;-59
2022/03/21 08:10:24;;;;;;;16.35;9.53;;;;;;;8.94;55.06;102247.75;1777240;80;20967;-59
2022/03/21 08:12:50;;;;;;;14.73;9.85;;;;;;;8.95;54.93;102245.56;1779034;79;20968;-59
2022/03/21 08:15:18;;;;;;;15.13;9.67;;;;;;;9.01;54.80;102249.47;1775721;80;21105;-59
2022/03/21 08:17:57;;;;;;;19.42;10.43;;;;;;;9.03;54.50;102248.18;1769400;79;26572;-59
2022/03/21 08:20:33;;;;;;;18.50;10.25;;;;;;;9.02;54.04;102247.31;1782884;78;21029;-59
2022/03/21 08:22:56;;;;;;;16.32;9.75;;;;;;;9.12;53.34;102245.11;1774362;79;21080;-59
2022/03/21 08:25:23;;;;;;;32.08;10.80;;;;;;;8.98;52.96;102245.56;1774372;79;21722;-59
2022/03/21 08:27:50;;;;;;;16.60;11.60;;;;;;;8.88;52.77;102243.84;1781961;78;21598;-59
2022/03/21 08:30:18;;;;;;;15.80;10.05;;;;;;;8.90;52.63;102242.09;1774091;79;21872;-59
2022/03/21 08:34:30;;;;;;;16.42;9.18;;;;;;;8.94;51.76;102238.62;1869506;75;22565;-59
2022/03/21 08:36:58;;;;;;;18.10;9.43;;;;;;;8.89;52.35;102242.97;1843262;77;21008;-59
2022/03/21 08:39:25;;;;;;;17.25;10.95;;;;;;;8.92;51.14;102240.36;1788231;78;21659;-58
2022/03/21 08:41:52;;;;;;;14.33;9.90;;;;;;;8.96;51.68;102238.17;1781477;80;20989;-60
2022/03/21 08:44:20;;;;;;;20.83;9.67;;;;;;;9.04;51.71;102235.12;1804704;78;20989;-60
2022/03/21 08:46:48;;;;;;;18.00;12.00;;;;;;;9.07;51.24;102227.30;1779417;78;20979;-60
2022/03/21 08:49:33;;;;;;;;;;;;;;;9.10;51.10;102237.75;1793274;79;20957;-59
2022/03/21 08:51:57;;;;;;;27.48;10.43;;;;;;;9.16;48.96;102227.31;1791408;79;21990;-60
2022/03/21 08:54:24;;;;;;;11.68;9.25;;;;;;;9.21;50.07;102226.42;1791367;79;21486;-59
2022/03/21 08:56:50;;;;;;;11.80;9.35;;;;;;;9.15;49.92;102225.56;1783908;78;20910;-60
2022/03/21 08:59:18;;;;;;;18.52;10.18;;;;;;;9.17;49.53;102230.34;1784551;80;20993;-60
2022/03/21 09:01:48;;;;;;;20.43;10.40;;;;;;;9.16;49.73;102222.10;1808431;78;21483;-61
2022/03/21 09:04:15;;;;;;;17.17;9.70;;;;;;;9.24;49.33;102226.42;1798084;78;21087;-60
2022/03/21 09:06:42;;;;;;;16.03;10.50;;;;;;;9.25;49.08;102226.87;1812513;78;21009;-59
2022/03/21 09:09:09;;;;;;;20.40;11.57;;;;;;;9.21;48.07;102222.52;1822567;78;20993;-59
2022/03/21 09:11:37;;;;;;;;;;;;;;;9.24;48.64;102229.02;1818443;77;21450;-59
2022/03/21 09:14:04;;;;;;;23.85;11.80;;;;;;;9.29;49.01;102229.89;1805046;77;20459;-59
2022/03/21 09:16:31;;;;;;;17.00;11.12;;;;;;;9.49;49.44;102224.62;1804361;78;21347;-59
2022/03/21 09:18:57;;;;;;;49.73;15.10;;;;;;;9.60;48.66;102217.63;1789448;78;21609;-62
2022/03/21 09:21:24;;;;;;;19.27;11.93;;;;;;;9.62;48.99;102224.58;1771682;79;20919;-59
2022/03/21 09:23:51;;;;;;;18.85;12.58;;;;;;;9.72;48.88;102219.32;1769224;80;21037;-61
2022/03/21 09:26:24;;;;;;;19.02;11.85;;;;;;;9.93;48.96;102211.41;1786436;79;21017;-58
2022/03/21 09:28:59;;;;;;;19.42;12.13;;;;;;;9.93;48.96;102211.41;1781263;78;21112;-59
2022/03/21 09:31:19;;;;;;;16.40;11.85;;;;;;;10.03;48.61;102207.03;1778989;80;21673;-59
2022/03/21 09:33:45;;;;;;;19.30;11.97;;;;;;;10.11;48.58;102206.97;1784383;78;21554;-59
2022/03/21 09:36:13;;;;;;;15.90;11.12;;;;;;;10.17;48.76;102201.73;1782377;79;20992;-60
2022/03/21 09:38:41;;;;;;;14.65;11.65;;;;;;;10.36;48.66;102200.74;1775200;79;21494;-62
2022/03/21 09:41:30;;;;;;;18.95;12.30;;;;;;;10.36;48.66;102200.74;1708147;82;20965;-59
2022/03/21 09:44:03;;;;;;;15.25;10.93;;;;;;;10.46;48.59;102203.73;1726020;82;21010;-59
2022/03/21 09:46:31;;;;;;;15.90;12.20;;;;;;;10.52;48.04;102192.37;1731000;81;20936;-59
2022/03/21 09:48:58;;;;;;;18.00;11.53;;;;;;;10.56;48.43;102195.41;1691511;83;20949;-58
2022/03/21 09:51:28;;;;;;;18.40;11.05;;;;;;;10.66;47.11;102177.89;1690259;84;22093;-59
2022/03/21 09:53:57;;;;;;;12.75;10.05;;;;;;;10.49;46.39;102181.50;1720210;82;21085;-59
2022/03/21 09:56:25;;;;;;;19.35;11.18;;;;;;;10.19;47.29;102159.48;1702820;82;21064;-59
2022/03/21 09:59:10;;;;;;;14.75;10.93;;;;;;;10.19;47.29;102159.48;1715955;82;21496;-61
2022/03/21 10:01:25;;;;;;;20.32;10.48;;;;;;;10.42;46.95;102172.00;1674832;84;21726;-59
2022/03/21 10:03:52;;;;;;;11.05;8.50;;;;;;;10.43;45.93;102168.49;1675950;83;20985;-59
2022/03/21 10:06:39;;;;;;;12.50;8.18;;;;;;;10.41;45.77;102165.02;1725249;81;22187;-59
2022/03/21 10:09:20;;;;;;;13.50;8.73;;;;;;;10.32;45.71;102161.63;1675168;84;21581;-59
2022/03/21 10:11:55;;;;;;;11.30;9.08;;;;;;;10.36;46.02;102164.18;1733729;81;21172;-59
2022/03/21 10:14:32;;;;;;;13.43;9.80;;;;;;;10.53;46.13;102162.33;1708686;82;21546;-59
2022/03/21 10:17:06;;;;;;;11.57;8.33;;;;;;;10.65;45.97;102157.88;1727600;81;21052;-58
2022/03/21 10:19:52;;;;;;;13.68;8.78;;;;;;;10.54;44.31;102150.12;1682003;83;22521;-59
2022/03/21 10:22:41;;;;;;;10.23;8.43;;;;;;;10.54;44.31;102150.12;1726602;82;20925;-59
2022/03/21 10:25:15;;;;;;;13.60;8.05;;;;;;;10.60;45.18;102149.21;1684107;83;21136;-59
2022/03/21 10:27:44;;;;;;;17.30;8.53;;;;;;;10.70;45.17;102146.95;1718954;82;20973;-58
2022/03/21 10:30:19;;;;;;;16.20;8.45;;;;;;;10.82;45.15;102146.83;1728688;81;21001;-59
2022/03/21 10:33:08;;;;;;;12.60;7.70;;;;;;;10.94;45.35;102145.38;1681509;82;21116;-59
2022/03/21 10:35:46;;;;;;;10.68;7.62;;;;;;;11.12;45.05;102135.64;1710891;81;21501;-63
2022/03/21 10:38:13;;;;;;;13.43;8.43;;;;;;;11.25;44.97;102135.91;1740064;81;21016;-59
2022/03/21 10:40:48;;;;;;;;;;;;;;;11.31;44.84;102131.91;1743416;80;20947;-59
2022/03/21 10:43:18;;;;;;;27.10;8.55;;;;;;;11.35;44.55;102128.38;1737194;80;20238;-60
2022/03/21 10:46:08;;;;;;;14.73;6.87;;;;;;;11.43;44.77;102121.31;1687879;82;21072;-59
2022/03/21 10:48:35;;;;;;;12.60;7.87;;;;;;;11.57;44.56;102128.98;1723297;81;21601;-59
2022/03/21 10:51:04;;;;;;;54.75;11.15;;;;;;;11.55;44.25;102119.42;1725613;81;28201;-59
2022/03/21 10:53:41;;;;;;;10.95;7.90;;;;;;;11.51;44.29;102119.91;1717726;82;21057;-59
2022/03/21 10:56:11;;;;;;;8.17;7.13;;;;;;;11.53;44.24;102116.81;1724127;81;21006;-59
2022/03/21 10:58:50;;;;;;;14.07;8.33;;;;;;;11.58;44.13;102115.00;1725391;81;21892;-59
2022/03/21 11:01:29;;;;;;;10.30;7.28;;;;;;;11.60;44.23;102115.00;1715203;81;21095;-60
2022/03/21 11:04:00;;;;;;;9.00;7.62;;;;;;;11.57;42.97;102113.73;1728188;81;21466;-59
2022/03/21 11:06:27;;;;;;;11.73;7.12;;;;;;;11.47;43.86;102116.03;1717830;81;20989;-58
2022/03/21 11:08:55;;;;;;;15.75;8.15;;;;;;;11.56;43.71;102109.37;1712666;80;20955;-59
2022/03/21 11:11:25;;;;;;;11.93;7.97;;;;;;;11.61;43.53;102108.87;1708654;81;21092;-59
2022/03/21 11:13:53;;;;;;;15.10;9.08;;;;;;;11.63;43.55;102108.41;1707917;81;21492;-58
2022/03/21 11:16:21;;;;;;;14.25;8.25;;;;;;;11.69;43.55;102104.39;1709009;82;21531;-58
2022/03/21 11:18:51;;;;;;;10.05;7.60;;;;;;;11.79;43.62;102105.12;1738959;80;21558;-58
2022/03/21 11:21:20;;;;;;;34.05;9.55;;;;;;;11.80;43.50;102095.95;1738630;80;21008;-59
2022/03/21 11:23:47;;;;;;;12.13;8.28;;;;;;;11.86;43.24;102098.50;1744887;80;21090;-60
2022/03/21 11:26:31;;;;;;;;;;;;;;;11.80;42.49;102099.02;1733574;80;21612;-60
2022/03/21 11:29:28;;;;;;;13.85;9.00;;;;;;;11.62;41.90;102097.50;1748652;79;20094;-59
2022/03/21 11:32:30;;;;;;;14.50;8.28;;;;;;;11.61;42.60;102095.78;1754618;80;21259;-60
2022/03/21 11:35:14;;;;;;;17.40;9.00;;;;;;;11.58;42.42;102094.52;1742394;80;20935;-59
2022/03/21 11:37:42;;;;;;;15.18;8.60;;;;;;;11.41;40.52;102088.20;1751265;80;22351;-59
2022/03/21 11:40:30;;;;;;;12.88;8.98;;;;;;;11.39;41.24;102082.12;1753164;81;21111;-60
2022/03/21 11:43:17;;;;;;;14.70;9.98;;;;;;;11.32;40.96;102083.96;1740826;80;20965;-59
2022/03/21 11:45:55;;;;;;;11.95;9.78;;;;;;;11.32;41.19;102081.80;1700430;81;21675;-59
2022/03/21 11:48:30;;;;;;;92.82;16.75;;;;;;;11.43;41.25;102073.36;1740700;81;21009;-60
2022/03/21 11:51:02;;;;;;;13.55;9.53;;;;;;;11.46;40.16;102067.23;1738651;80;21896;-60